sensor_id;sensor_type;location;lat;lon;timestamp;temperature;humidity
11615;DHT22;5863;52.832;4.758;2023-04-03T00:01:35;5.50;99.90
11615;DHT22;5863;52.832;4.758;2023-04-03T00:04:03;5.50;99.90
11615;DHT22;5863;52.832;4.758;2023-04-03T00:06:32;5.50;99.90
11615;DHT22;5863;52.832;4.758;2023-04-03T00:08:59;5.50;99.90
11615;DHT22;5863;52.832;4.758;2023-04-03T00:11:25;5.50;99.90
11615;DHT22;5863;52.832;4.758;2023-04-03T00:13:52;5.40;99.90
11615;DHT22;5863;52.832;4.758;2023-04-03T00:16:19;5.40;99.90
11615;DHT22;5863;52.832;4.758;2023-04-03T00:18:47;5.40;99.90
11615;DHT22;5863;52.832;4.758;2023-04-03T00:21:14;5.40;99.90
11615;DHT22;5863;52.832;4.758;2023-04-03T00:23:42;5.40;99.90
11615;DHT22;5863;52.832;4.758;2023-04-03T00:26:09;5.40;99.90
11615;DHT22;5863;52.832;4.758;2023-04-03T00:28:36;5.40;99.90
11615;DHT22;5863;52.832;4.758;2023-04-03T00:31:03;5.40;99.90
11615;DHT22;5863;52.832;4.758;2023-04-03T00:33:29;5.40;99.90
11615;DHT22;5863;52.832;4.758;2023-04-03T00:35:56;5.40;99.90
11615;DHT22;5863;52.832;4.758;2023-04-03T00:38:23;5.30;99.90
11615;DHT22;5863;52.832;4.758;2023-04-03T00:40:51;5.30;99.90
11615;DHT22;5863;52.832;4.758;2023-04-03T00:43:19;5.40;99.90
11615;DHT22;5863;52.832;4.758;2023-04-03T00:45:47;5.40;99.90
11615;DHT22;5863;52.832;4.758;2023-04-03T00:48:22;5.40;99.90
11615;DHT22;5863;52.832;4.758;2023-04-03T00:50:52;5.30;99.90
11615;DHT22;5863;52.832;4.758;2023-04-03T00:53:23;5.30;99.90
11615;DHT22;5863;52.832;4.758;2023-04-03T00:55:54;5.30;99.90
11615;DHT22;5863;52.832;4.758;2023-04-03T00:58:26;5.30;99.90
11615;DHT22;5863;52.832;4.758;2023-04-03T01:00:58;5.20;99.90
11615;DHT22;5863;52.832;4.758;2023-04-03T01:03:25;5.20;99.90
11615;DHT22;5863;52.832;4.758;2023-04-03T01:05:52;5.20;99.90
11615;DHT22;5863;52.832;4.758;2023-04-03T01:08:19;5.20;99.90
11615;DHT22;5863;52.832;4.758;2023-04-03T01:10:46;5.10;99.90
11615;DHT22;5863;52.832;4.758;2023-04-03T01:13:25;5.10;99.90
11615;DHT22;5863;52.832;4.758;2023-04-03T01:15:52;5.10;99.90
11615;DHT22;5863;52.832;4.758;2023-04-03T01:18:19;5.10;99.90
11615;DHT22;5863;52.832;4.758;2023-04-03T01:21:10;5.10;99.90
11615;DHT22;5863;52.832;4.758;2023-04-03T01:23:48;5.00;99.90
11615;DHT22;5863;52.832;4.758;2023-04-03T01:26:19;5.00;99.90
11615;DHT22;5863;52.832;4.758;2023-04-03T01:28:48;4.90;99.90
11615;DHT22;5863;52.832;4.758;2023-04-03T01:31:20;4.90;99.90
11615;DHT22;5863;52.832;4.758;2023-04-03T01:33:49;4.80;99.90
11615;DHT22;5863;52.832;4.758;2023-04-03T01:36:18;4.80;99.90
11615;DHT22;5863;52.832;4.758;2023-04-03T01:38:46;4.80;99.90
11615;DHT22;5863;52.832;4.758;2023-04-03T01:41:12;4.80;99.90
11615;DHT22;5863;52.832;4.758;2023-04-03T01:43:39;4.80;99.90
11615;DHT22;5863;52.832;4.758;2023-04-03T01:46:06;4.70;99.90
11615;DHT22;5863;52.832;4.758;2023-04-03T01:48:33;4.70;99.90
11615;DHT22;5863;52.832;4.758;2023-04-03T01:51:01;4.70;99.90
11615;DHT22;5863;52.832;4.758;2023-04-03T01:53:28;4.60;99.90
11615;DHT22;5863;52.832;4.758;2023-04-03T01:55:54;4.60;99.90
11615;DHT22;5863;52.832;4.758;2023-04-03T01:58:22;4.50;99.90
11615;DHT22;5863;52.832;4.758;2023-04-03T02:00:49;4.50;99.90
11615;DHT22;5863;52.832;4.758;2023-04-03T02:03:15;4.50;99.90
11615;DHT22;5863;52.832;4.758;2023-04-03T02:05:42;4.50;99.90
11615;DHT22;5863;52.832;4.758;2023-04-03T02:08:10;4.50;99.90
11615;DHT22;5863;52.832;4.758;2023-04-03T02:10:37;4.50;99.90
11615;DHT22;5863;52.832;4.758;2023-04-03T02:13:03;4.50;99.90
11615;DHT22;5863;52.832;4.758;2023-04-03T02:15:30;4.50;99.90
11615;DHT22;5863;52.832;4.758;2023-04-03T02:17:57;4.50;99.90
11615;DHT22;5863;52.832;4.758;2023-04-03T02:20:23;4.50;99.90
11615;DHT22;5863;52.832;4.758;2023-04-03T02:22:50;4.40;99.90
11615;DHT22;5863;52.832;4.758;2023-04-03T02:25:18;4.40;99.90
11615;DHT22;5863;52.832;4.758;2023-04-03T02:27:45;4.40;99.90
11615;DHT22;5863;52.832;4.758;2023-04-03T02:30:13;4.40;99.90
11615;DHT22;5863;52.832;4.758;2023-04-03T02:32:41;4.30;99.90
11615;DHT22;5863;52.832;4.758;2023-04-03T02:35:08;4.30;99.90
11615;DHT22;5863;52.832;4.758;2023-04-03T02:37:35;4.30;99.90
11615;DHT22;5863;52.832;4.758;2023-04-03T02:40:03;4.30;99.90
11615;DHT22;5863;52.832;4.758;2023-04-03T02:42:31;4.30;99.90
11615;DHT22;5863;52.832;4.758;2023-04-03T02:44:58;4.20;99.90
11615;DHT22;5863;52.832;4.758;2023-04-03T02:47:26;4.20;99.90
11615;DHT22;5863;52.832;4.758;2023-04-03T02:49:52;4.20;99.90
11615;DHT22;5863;52.832;4.758;2023-04-03T02:52:19;4.20;99.90
11615;DHT22;5863;52.832;4.758;2023-04-03T02:54:46;4.10;99.90
11615;DHT22;5863;52.832;4.758;2023-04-03T02:57:13;4.20;99.90
11615;DHT22;5863;52.832;4.758;2023-04-03T02:59:41;4.20;99.90
11615;DHT22;5863;52.832;4.758;2023-04-03T03:02:08;4.10;99.90
11615;DHT22;5863;52.832;4.758;2023-04-03T03:04:36;4.10;99.90
11615;DHT22;5863;52.832;4.758;2023-04-03T03:07:03;4.10;99.90
11615;DHT22;5863;52.832;4.758;2023-04-03T03:09:30;4.00;99.90
11615;DHT22;5863;52.832;4.758;2023-04-03T03:11:57;4.00;99.90
11615;DHT22;5863;52.832;4.758;2023-04-03T03:14:23;4.00;99.90
11615;DHT22;5863;52.832;4.758;2023-04-03T03:16:59;3.90;99.90
11615;DHT22;5863;52.832;4.758;2023-04-03T03:19:25;3.90;99.90
11615;DHT22;5863;52.832;4.758;2023-04-03T03:21:52;3.90;99.90
11615;DHT22;5863;52.832;4.758;2023-04-03T03:24:18;3.90;99.90
11615;DHT22;5863;52.832;4.758;2023-04-03T03:26:45;3.90;99.90
11615;DHT22;5863;52.832;4.758;2023-04-03T03:29:12;3.90;99.90
11615;DHT22;5863;52.832;4.758;2023-04-03T03:31:38;3.90;99.90
11615;DHT22;5863;52.832;4.758;2023-04-03T03:34:07;3.90;99.90
11615;DHT22;5863;52.832;4.758;2023-04-03T03:36:33;3.90;99.90
11615;DHT22;5863;52.832;4.758;2023-04-03T03:39:00;3.80;99.90
11615;DHT22;5863;52.832;4.758;2023-04-03T03:41:27;3.80;99.90
11615;DHT22;5863;52.832;4.758;2023-04-03T03:43:54;3.80;99.90
11615;DHT22;5863;52.832;4.758;2023-04-03T03:46:24;3.80;99.90
11615;DHT22;5863;52.832;4.758;2023-04-03T03:48:51;3.80;99.90
11615;DHT22;5863;52.832;4.758;2023-04-03T03:51:19;3.70;99.90
11615;DHT22;5863;52.832;4.758;2023-04-03T03:53:46;3.70;99.90
11615;DHT22;5863;52.832;4.758;2023-04-03T03:56:12;3.60;99.90
11615;DHT22;5863;52.832;4.758;2023-04-03T03:58:39;3.70;99.90
11615;DHT22;5863;52.832;4.758;2023-04-03T04:01:06;3.60;99.90
11615;DHT22;5863;52.832;4.758;2023-04-03T04:03:33;3.70;99.90
11615;DHT22;5863;52.832;4.758;2023-04-03T04:06:00;3.70;99.90
11615;DHT22;5863;52.832;4.758;2023-04-03T04:08:28;3.60;99.90
11615;DHT22;5863;52.832;4.758;2023-04-03T04:10:55;3.70;99.90
11615;DHT22;5863;52.832;4.758;2023-04-03T04:13:21;3.60;99.90
11615;DHT22;5863;52.832;4.758;2023-04-03T04:15:48;3.50;99.90
11615;DHT22;5863;52.832;4.758;2023-04-03T04:18:15;3.50;99.90
11615;DHT22;5863;52.832;4.758;2023-04-03T04:20:44;3.60;99.90
11615;DHT22;5863;52.832;4.758;2023-04-03T04:23:11;3.60;99.90
11615;DHT22;5863;52.832;4.758;2023-04-03T04:25:39;3.60;99.90
11615;DHT22;5863;52.832;4.758;2023-04-03T04:28:06;3.60;99.90
11615;DHT22;5863;52.832;4.758;2023-04-03T04:30:33;3.60;99.90
11615;DHT22;5863;52.832;4.758;2023-04-03T04:33:00;3.60;99.90
11615;DHT22;5863;52.832;4.758;2023-04-03T04:35:26;3.60;99.90
11615;DHT22;5863;52.832;4.758;2023-04-03T04:37:53;3.60;99.90
11615;DHT22;5863;52.832;4.758;2023-04-03T04:40:20;3.60;99.90
11615;DHT22;5863;52.832;4.758;2023-04-03T04:42:50;3.50;99.90
11615;DHT22;5863;52.832;4.758;2023-04-03T04:45:17;3.40;99.90
11615;DHT22;5863;52.832;4.758;2023-04-03T04:47:44;3.40;99.90
11615;DHT22;5863;52.832;4.758;2023-04-03T04:50:11;3.40;99.90
11615;DHT22;5863;52.832;4.758;2023-04-03T04:52:38;3.40;99.90
11615;DHT22;5863;52.832;4.758;2023-04-03T04:55:05;3.40;99.90
11615;DHT22;5863;52.832;4.758;2023-04-03T04:57:32;3.40;99.90
11615;DHT22;5863;52.832;4.758;2023-04-03T05:00:01;3.40;99.90
11615;DHT22;5863;52.832;4.758;2023-04-03T05:02:28;3.40;99.90
11615;DHT22;5863;52.832;4.758;2023-04-03T05:04:55;3.40;99.90
11615;DHT22;5863;52.832;4.758;2023-04-03T05:07:21;3.30;99.90
11615;DHT22;5863;52.832;4.758;2023-04-03T05:09:48;3.40;99.90
11615;DHT22;5863;52.832;4.758;2023-04-03T05:12:29;3.40;99.90
11615;DHT22;5863;52.832;4.758;2023-04-03T05:14:55;3.40;99.90
11615;DHT22;5863;52.832;4.758;2023-04-03T05:17:24;3.30;99.90
11615;DHT22;5863;52.832;4.758;2023-04-03T05:19:50;3.30;99.90
11615;DHT22;5863;52.832;4.758;2023-04-03T05:22:17;3.20;99.90
11615;DHT22;5863;52.832;4.758;2023-04-03T05:24:43;3.20;99.90
11615;DHT22;5863;52.832;4.758;2023-04-03T05:27:10;3.20;99.90
11615;DHT22;5863;52.832;4.758;2023-04-03T05:29:43;3.30;99.90
11615;DHT22;5863;52.832;4.758;2023-04-03T05:32:10;3.40;99.90
11615;DHT22;5863;52.832;4.758;2023-04-03T05:34:38;3.40;99.90
11615;DHT22;5863;52.832;4.758;2023-04-03T05:37:05;3.50;99.90
11615;DHT22;5863;52.832;4.758;2023-04-03T05:39:33;3.60;99.90
11615;DHT22;5863;52.832;4.758;2023-04-03T05:42:00;3.60;99.90
11615;DHT22;5863;52.832;4.758;2023-04-03T05:44:29;3.70;99.90
11615;DHT22;5863;52.832;4.758;2023-04-03T05:46:56;3.80;99.90
11615;DHT22;5863;52.832;4.758;2023-04-03T05:49:22;3.90;99.90
11615;DHT22;5863;52.832;4.758;2023-04-03T05:51:51;4.00;99.90
11615;DHT22;5863;52.832;4.758;2023-04-03T05:54:20;4.10;99.90
11615;DHT22;5863;52.832;4.758;2023-04-03T05:56:48;4.30;99.90
11615;DHT22;5863;52.832;4.758;2023-04-03T05:59:15;4.40;99.90
11615;DHT22;5863;52.832;4.758;2023-04-03T06:01:42;4.50;99.90
11615;DHT22;5863;52.832;4.758;2023-04-03T06:04:14;4.60;99.90
11615;DHT22;5863;52.832;4.758;2023-04-03T06:06:45;5.00;99.90
11615;DHT22;5863;52.832;4.758;2023-04-03T06:09:21;5.40;99.90
11615;DHT22;5863;52.832;4.758;2023-04-03T06:11:48;5.70;99.90
11615;DHT22;5863;52.832;4.758;2023-04-03T06:14:15;6.00;99.90
11615;DHT22;5863;52.832;4.758;2023-04-03T06:16:42;6.20;99.90
11615;DHT22;5863;52.832;4.758;2023-04-03T06:19:10;6.40;99.90
11615;DHT22;5863;52.832;4.758;2023-04-03T06:21:37;6.70;99.90
11615;DHT22;5863;52.832;4.758;2023-04-03T06:24:04;7.20;99.90
11615;DHT22;5863;52.832;4.758;2023-04-03T06:26:40;7.70;99.90
11615;DHT22;5863;52.832;4.758;2023-04-03T06:29:07;8.30;99.90
11615;DHT22;5863;52.832;4.758;2023-04-03T06:31:34;8.60;99.90
11615;DHT22;5863;52.832;4.758;2023-04-03T06:34:01;9.00;99.90
11615;DHT22;5863;52.832;4.758;2023-04-03T06:36:29;9.70;99.90
11615;DHT22;5863;52.832;4.758;2023-04-03T06:38:56;10.10;99.90
11615;DHT22;5863;52.832;4.758;2023-04-03T06:41:23;10.40;99.90
11615;DHT22;5863;52.832;4.758;2023-04-03T06:43:53;10.60;99.90
11615;DHT22;5863;52.832;4.758;2023-04-03T06:46:22;11.00;99.90
11615;DHT22;5863;52.832;4.758;2023-04-03T06:48:50;11.30;99.90
11615;DHT22;5863;52.832;4.758;2023-04-03T06:51:19;11.70;99.90
11615;DHT22;5863;52.832;4.758;2023-04-03T06:53:46;12.00;99.90
11615;DHT22;5863;52.832;4.758;2023-04-03T06:56:15;12.30;99.90
11615;DHT22;5863;52.832;4.758;2023-04-03T06:58:42;12.40;99.60
11615;DHT22;5863;52.832;4.758;2023-04-03T07:01:11;12.10;99.30
11615;DHT22;5863;52.832;4.758;2023-04-03T07:03:39;11.70;99.60
11615;DHT22;5863;52.832;4.758;2023-04-03T07:06:07;11.20;99.90
11615;DHT22;5863;52.832;4.758;2023-04-03T07:08:34;10.80;99.90
11615;DHT22;5863;52.832;4.758;2023-04-03T07:11:01;10.40;99.90
11615;DHT22;5863;52.832;4.758;2023-04-03T07:13:28;9.90;99.90
11615;DHT22;5863;52.832;4.758;2023-04-03T07:15:55;9.50;99.90
11615;DHT22;5863;52.832;4.758;2023-04-03T07:18:23;9.10;99.90
11615;DHT22;5863;52.832;4.758;2023-04-03T07:20:51;8.80;99.90
11615;DHT22;5863;52.832;4.758;2023-04-03T07:23:18;8.60;99.90
11615;DHT22;5863;52.832;4.758;2023-04-03T07:25:44;8.40;99.90
11615;DHT22;5863;52.832;4.758;2023-04-03T07:28:12;8.30;99.90
11615;DHT22;5863;52.832;4.758;2023-04-03T07:30:43;8.50;99.90
11615;DHT22;5863;52.832;4.758;2023-04-03T07:33:10;9.20;99.90
11615;DHT22;5863;52.832;4.758;2023-04-03T07:35:38;9.70;99.90
11615;DHT22;5863;52.832;4.758;2023-04-03T07:38:05;9.90;99.90
11615;DHT22;5863;52.832;4.758;2023-04-03T07:40:32;10.20;99.90
11615;DHT22;5863;52.832;4.758;2023-04-03T07:42:59;10.60;99.90
11615;DHT22;5863;52.832;4.758;2023-04-03T07:45:26;10.60;99.90
11615;DHT22;5863;52.832;4.758;2023-04-03T07:47:53;10.80;99.90
11615;DHT22;5863;52.832;4.758;2023-04-03T07:50:20;11.10;99.80
11615;DHT22;5863;52.832;4.758;2023-04-03T07:52:48;11.70;99.50
11615;DHT22;5863;52.832;4.758;2023-04-03T07:55:16;12.00;98.40
11615;DHT22;5863;52.832;4.758;2023-04-03T07:57:43;12.00;98.00
11615;DHT22;5863;52.832;4.758;2023-04-03T08:00:11;12.30;98.00
11615;DHT22;5863;52.832;4.758;2023-04-03T08:02:38;12.50;97.70
11615;DHT22;5863;52.832;4.758;2023-04-03T08:05:05;12.60;96.80
11615;DHT22;5863;52.832;4.758;2023-04-03T08:07:32;12.50;96.50
11615;DHT22;5863;52.832;4.758;2023-04-03T08:10:00;12.40;96.70
11615;DHT22;5863;52.832;4.758;2023-04-03T08:12:26;12.50;96.40
11615;DHT22;5863;52.832;4.758;2023-04-03T08:14:54;12.50;96.70
11615;DHT22;5863;52.832;4.758;2023-04-03T08:17:20;12.40;96.50
11615;DHT22;5863;52.832;4.758;2023-04-03T08:19:47;12.10;96.40
11615;DHT22;5863;52.832;4.758;2023-04-03T08:22:13;11.80;96.60
11615;DHT22;5863;52.832;4.758;2023-04-03T08:24:41;11.50;96.80
11615;DHT22;5863;52.832;4.758;2023-04-03T08:27:09;11.20;97.10
11615;DHT22;5863;52.832;4.758;2023-04-03T08:29:36;11.10;97.70
11615;DHT22;5863;52.832;4.758;2023-04-03T08:32:03;10.70;97.70
11615;DHT22;5863;52.832;4.758;2023-04-03T08:34:30;10.50;98.00
11615;DHT22;5863;52.832;4.758;2023-04-03T08:37:00;10.10;98.60
11615;DHT22;5863;52.832;4.758;2023-04-03T08:39:26;9.90;99.30
11615;DHT22;5863;52.832;4.758;2023-04-03T08:41:55;9.80;99.80
11615;DHT22;5863;52.832;4.758;2023-04-03T08:44:34;9.70;99.40
11615;DHT22;5863;52.832;4.758;2023-04-03T08:47:09;9.50;99.90
11615;DHT22;5863;52.832;4.758;2023-04-03T08:49:40;9.40;99.90
11615;DHT22;5863;52.832;4.758;2023-04-03T08:52:15;9.30;99.90
11615;DHT22;5863;52.832;4.758;2023-04-03T08:54:49;9.30;99.90
11615;DHT22;5863;52.832;4.758;2023-04-03T08:57:17;9.20;99.90
11615;DHT22;5863;52.832;4.758;2023-04-03T08:59:49;9.20;99.90
11615;DHT22;5863;52.832;4.758;2023-04-03T09:02:25;9.20;99.90
11615;DHT22;5863;52.832;4.758;2023-04-03T09:04:53;9.10;99.40
11615;DHT22;5863;52.832;4.758;2023-04-03T09:07:25;9.00;99.80
11615;DHT22;5863;52.832;4.758;2023-04-03T09:09:59;9.00;99.90
11615;DHT22;5863;52.832;4.758;2023-04-03T09:12:33;9.10;99.90
11615;DHT22;5863;52.832;4.758;2023-04-03T09:15:10;9.10;99.90
11615;DHT22;5863;52.832;4.758;2023-04-03T09:17:44;9.20;99.70
11615;DHT22;5863;52.832;4.758;2023-04-03T09:20:19;9.20;99.80
11615;DHT22;5863;52.832;4.758;2023-04-03T09:22:50;9.20;98.60
11615;DHT22;5863;52.832;4.758;2023-04-03T09:25:20;9.30;98.80
11615;DHT22;5863;52.832;4.758;2023-04-03T09:27:48;9.20;98.60
11615;DHT22;5863;52.832;4.758;2023-04-03T09:30:19;9.20;98.70
11615;DHT22;5863;52.832;4.758;2023-04-03T09:32:49;9.10;98.40
11615;DHT22;5863;52.832;4.758;2023-04-03T09:35:20;9.10;98.50
11615;DHT22;5863;52.832;4.758;2023-04-03T09:37:50;9.10;98.60
11615;DHT22;5863;52.832;4.758;2023-04-03T09:40:34;9.10;96.70
11615;DHT22;5863;52.832;4.758;2023-04-03T09:43:19;9.10;96.00
11615;DHT22;5863;52.832;4.758;2023-04-03T09:45:49;9.10;96.40
11615;DHT22;5863;52.832;4.758;2023-04-03T09:48:19;9.10;96.40
11615;DHT22;5863;52.832;4.758;2023-04-03T09:51:00;9.20;97.10
11615;DHT22;5863;52.832;4.758;2023-04-03T09:53:34;9.40;97.10
11615;DHT22;5863;52.832;4.758;2023-04-03T09:56:04;9.30;94.20
11615;DHT22;5863;52.832;4.758;2023-04-03T09:58:35;9.30;94.90
11615;DHT22;5863;52.832;4.758;2023-04-03T10:01:05;9.20;95.00
11615;DHT22;5863;52.832;4.758;2023-04-03T10:03:34;9.20;95.20
11615;DHT22;5863;52.832;4.758;2023-04-03T10:06:02;9.30;95.10
11615;DHT22;5863;52.832;4.758;2023-04-03T10:08:32;9.40;95.30
11615;DHT22;5863;52.832;4.758;2023-04-03T10:11:13;9.60;95.20
11615;DHT22;5863;52.832;4.758;2023-04-03T10:13:51;9.60;94.70
11615;DHT22;5863;52.832;4.758;2023-04-03T10:16:22;9.60;94.00
11615;DHT22;5863;52.832;4.758;2023-04-03T10:19:06;9.60;94.20
11615;DHT22;5863;52.832;4.758;2023-04-03T10:21:45;9.60;94.60
11615;DHT22;5863;52.832;4.758;2023-04-03T10:24:17;9.80;95.70
11615;DHT22;5863;52.832;4.758;2023-04-03T10:26:53;9.90;94.60
11615;DHT22;5863;52.832;4.758;2023-04-03T10:29:40;10.00;93.60
11615;DHT22;5863;52.832;4.758;2023-04-03T10:32:22;10.00;94.30
11615;DHT22;5863;52.832;4.758;2023-04-03T10:34:58;10.10;94.70
11615;DHT22;5863;52.832;4.758;2023-04-03T10:37:30;10.10;93.50
11615;DHT22;5863;52.832;4.758;2023-04-03T10:40:20;10.00;93.40
11615;DHT22;5863;52.832;4.758;2023-04-03T10:42:53;10.00;92.90
11615;DHT22;5863;52.832;4.758;2023-04-03T10:45:26;10.00;93.40
11615;DHT22;5863;52.832;4.758;2023-04-03T10:48:02;10.20;93.80
11615;DHT22;5863;52.832;4.758;2023-04-03T10:50:39;10.20;92.20
11615;DHT22;5863;52.832;4.758;2023-04-03T10:53:16;10.20;93.50
11615;DHT22;5863;52.832;4.758;2023-04-03T10:55:49;10.20;93.00
11615;DHT22;5863;52.832;4.758;2023-04-03T10:58:21;10.30;93.40
11615;DHT22;5863;52.832;4.758;2023-04-03T11:00:53;10.40;93.60
11615;DHT22;5863;52.832;4.758;2023-04-03T11:03:30;10.50;93.00
11615;DHT22;5863;52.832;4.758;2023-04-03T11:06:00;10.30;91.60
11615;DHT22;5863;52.832;4.758;2023-04-03T11:08:33;10.20;92.40
11615;DHT22;5863;52.832;4.758;2023-04-03T11:11:05;10.10;92.60
11615;DHT22;5863;52.832;4.758;2023-04-03T11:13:35;10.20;93.00
11615;DHT22;5863;52.832;4.758;2023-04-03T11:16:03;10.20;92.80
11615;DHT22;5863;52.832;4.758;2023-04-03T11:18:37;10.20;92.60
11615;DHT22;5863;52.832;4.758;2023-04-03T11:21:11;10.30;93.70
11615;DHT22;5863;52.832;4.758;2023-04-03T11:23:41;10.40;93.90
11615;DHT22;5863;52.832;4.758;2023-04-03T11:26:10;10.50;92.80
11615;DHT22;5863;52.832;4.758;2023-04-03T11:28:38;10.40;91.60
11615;DHT22;5863;52.832;4.758;2023-04-03T11:31:15;10.30;92.30
11615;DHT22;5863;52.832;4.758;2023-04-03T11:33:53;10.30;92.50
11615;DHT22;5863;52.832;4.758;2023-04-03T11:36:24;10.20;91.40
11615;DHT22;5863;52.832;4.758;2023-04-03T11:38:54;10.10;92.00
11615;DHT22;5863;52.832;4.758;2023-04-03T11:41:27;10.10;92.40
11615;DHT22;5863;52.832;4.758;2023-04-03T11:43:57;10.20;92.70
11615;DHT22;5863;52.832;4.758;2023-04-03T11:46:50;10.30;93.10
11615;DHT22;5863;52.832;4.758;2023-04-03T11:49:58;10.30;92.10
11615;DHT22;5863;52.832;4.758;2023-04-03T11:52:56;10.30;93.10
11615;DHT22;5863;52.832;4.758;2023-04-03T11:55:54;10.30;91.70
11615;DHT22;5863;52.832;4.758;2023-04-03T11:58:23;10.30;91.90
11615;DHT22;5863;52.832;4.758;2023-04-03T12:00:53;10.20;91.00
11615;DHT22;5863;52.832;4.758;2023-04-03T12:06:53;10.00;91.30
11615;DHT22;5863;52.832;4.758;2023-04-03T12:09:26;10.00;91.10
11615;DHT22;5863;52.832;4.758;2023-04-03T12:11:54;10.10;92.10
11615;DHT22;5863;52.832;4.758;2023-04-03T12:14:23;10.20;92.10
11615;DHT22;5863;52.832;4.758;2023-04-03T12:16:52;10.30;91.30
11615;DHT22;5863;52.832;4.758;2023-04-03T12:19:35;10.30;91.30
11615;DHT22;5863;52.832;4.758;2023-04-03T12:22:15;10.40;91.50
11615;DHT22;5863;52.832;4.758;2023-04-03T12:24:43;10.50;91.70
11615;DHT22;5863;52.832;4.758;2023-04-03T12:27:27;10.50;91.70
11615;DHT22;5863;52.832;4.758;2023-04-03T12:30:03;10.50;91.30
11615;DHT22;5863;52.832;4.758;2023-04-03T12:32:55;10.40;89.80
11615;DHT22;5863;52.832;4.758;2023-04-03T12:35:27;10.30;90.30
11615;DHT22;5863;52.832;4.758;2023-04-03T12:38:17;10.30;91.20
11615;DHT22;5863;52.832;4.758;2023-04-03T12:40:49;10.40;91.80
11615;DHT22;5863;52.832;4.758;2023-04-03T12:43:38;10.40;90.60
11615;DHT22;5863;52.832;4.758;2023-04-03T12:46:12;10.30;90.50
11615;DHT22;5863;52.832;4.758;2023-04-03T12:48:47;10.30;90.40
11615;DHT22;5863;52.832;4.758;2023-04-03T12:51:16;10.40;91.40
11615;DHT22;5863;52.832;4.758;2023-04-03T12:53:46;10.40;90.90
11615;DHT22;5863;52.832;4.758;2023-04-03T12:56:22;10.40;90.90
11615;DHT22;5863;52.832;4.758;2023-04-03T12:58:51;10.40;90.50
11615;DHT22;5863;52.832;4.758;2023-04-03T13:01:21;10.50;92.20
11615;DHT22;5863;52.832;4.758;2023-04-03T13:03:52;10.60;91.40
11615;DHT22;5863;52.832;4.758;2023-04-03T13:06:22;10.50;89.30
11615;DHT22;5863;52.832;4.758;2023-04-03T13:08:54;10.40;89.50
11615;DHT22;5863;52.832;4.758;2023-04-03T13:11:23;10.30;89.20
11615;DHT22;5863;52.832;4.758;2023-04-03T13:13:56;10.20;90.60
11615;DHT22;5863;52.832;4.758;2023-04-03T13:16:23;10.30;90.40
11615;DHT22;5863;52.832;4.758;2023-04-03T13:18:52;10.30;90.00
11615;DHT22;5863;52.832;4.758;2023-04-03T13:21:20;10.20;87.90
11615;DHT22;5863;52.832;4.758;2023-04-03T13:23:52;10.10;87.50
11615;DHT22;5863;52.832;4.758;2023-04-03T13:26:22;10.00;90.30
11615;DHT22;5863;52.832;4.758;2023-04-03T13:28:50;10.10;90.30
11615;DHT22;5863;52.832;4.758;2023-04-03T13:31:20;10.10;89.80
11615;DHT22;5863;52.832;4.758;2023-04-03T13:33:57;10.20;90.30
11615;DHT22;5863;52.832;4.758;2023-04-03T13:36:27;10.20;90.70
11615;DHT22;5863;52.832;4.758;2023-04-03T13:39:03;10.30;90.10
11615;DHT22;5863;52.832;4.758;2023-04-03T13:41:35;10.20;90.10
11615;DHT22;5863;52.832;4.758;2023-04-03T13:44:32;10.10;87.50
11615;DHT22;5863;52.832;4.758;2023-04-03T13:47:01;10.10;89.50
11615;DHT22;5863;52.832;4.758;2023-04-03T13:49:43;10.20;87.90
11615;DHT22;5863;52.832;4.758;2023-04-03T13:52:25;10.20;88.50
11615;DHT22;5863;52.832;4.758;2023-04-03T13:54:57;10.20;89.10
11615;DHT22;5863;52.832;4.758;2023-04-03T13:57:24;10.20;87.50
11615;DHT22;5863;52.832;4.758;2023-04-03T13:59:51;10.20;89.20
11615;DHT22;5863;52.832;4.758;2023-04-03T14:02:22;10.20;87.60
11615;DHT22;5863;52.832;4.758;2023-04-03T14:04:53;10.20;88.00
11615;DHT22;5863;52.832;4.758;2023-04-03T14:07:22;10.20;87.20
11615;DHT22;5863;52.832;4.758;2023-04-03T14:09:50;10.20;89.00
11615;DHT22;5863;52.832;4.758;2023-04-03T14:12:26;10.20;88.20
11615;DHT22;5863;52.832;4.758;2023-04-03T14:14:53;10.20;87.80
11615;DHT22;5863;52.832;4.758;2023-04-03T14:17:23;10.20;87.60
11615;DHT22;5863;52.832;4.758;2023-04-03T14:19:53;10.10;86.10
11615;DHT22;5863;52.832;4.758;2023-04-03T14:22:22;10.10;86.70
11615;DHT22;5863;52.832;4.758;2023-04-03T14:24:50;10.00;86.60
11615;DHT22;5863;52.832;4.758;2023-04-03T14:27:20;10.00;89.80
11615;DHT22;5863;52.832;4.758;2023-04-03T14:29:47;10.10;89.70
11615;DHT22;5863;52.832;4.758;2023-04-03T14:32:16;10.00;86.50
11615;DHT22;5863;52.832;4.758;2023-04-03T14:34:44;10.00;87.80
11615;DHT22;5863;52.832;4.758;2023-04-03T14:37:13;10.10;89.40
11615;DHT22;5863;52.832;4.758;2023-04-03T14:39:41;10.00;88.70
11615;DHT22;5863;52.832;4.758;2023-04-03T14:42:12;10.10;90.20
11615;DHT22;5863;52.832;4.758;2023-04-03T14:44:40;10.10;89.30
11615;DHT22;5863;52.832;4.758;2023-04-03T14:47:10;10.00;89.30
11615;DHT22;5863;52.832;4.758;2023-04-03T14:49:37;10.00;88.40
11615;DHT22;5863;52.832;4.758;2023-04-03T14:52:03;10.00;87.40
11615;DHT22;5863;52.832;4.758;2023-04-03T14:54:30;10.00;87.20
11615;DHT22;5863;52.832;4.758;2023-04-03T14:56:59;10.00;88.10
11615;DHT22;5863;52.832;4.758;2023-04-03T14:59:26;10.00;90.30
11615;DHT22;5863;52.832;4.758;2023-04-03T15:01:54;10.10;87.70
11615;DHT22;5863;52.832;4.758;2023-04-03T15:04:21;10.00;89.10
11615;DHT22;5863;52.832;4.758;2023-04-03T15:06:48;10.00;90.30
11615;DHT22;5863;52.832;4.758;2023-04-03T15:09:19;10.00;89.90
11615;DHT22;5863;52.832;4.758;2023-04-03T15:11:47;9.90;87.50
11615;DHT22;5863;52.832;4.758;2023-04-03T15:14:13;9.90;88.20
11615;DHT22;5863;52.832;4.758;2023-04-03T15:16:40;9.90;87.90
11615;DHT22;5863;52.832;4.758;2023-04-03T15:19:09;10.00;89.70
11615;DHT22;5863;52.832;4.758;2023-04-03T15:21:36;9.90;89.70
11615;DHT22;5863;52.832;4.758;2023-04-03T15:24:03;9.90;90.70
11615;DHT22;5863;52.832;4.758;2023-04-03T15:26:30;9.90;89.80
11615;DHT22;5863;52.832;4.758;2023-04-03T15:28:57;9.90;90.50
11615;DHT22;5863;52.832;4.758;2023-04-03T15:31:24;9.90;89.50
11615;DHT22;5863;52.832;4.758;2023-04-03T15:33:51;9.90;89.00
11615;DHT22;5863;52.832;4.758;2023-04-03T15:36:19;9.90;89.60
11615;DHT22;5863;52.832;4.758;2023-04-03T15:38:45;9.90;89.30
11615;DHT22;5863;52.832;4.758;2023-04-03T15:41:12;9.90;88.60
11615;DHT22;5863;52.832;4.758;2023-04-03T15:43:39;9.90;90.40
11615;DHT22;5863;52.832;4.758;2023-04-03T15:46:06;9.90;90.50
11615;DHT22;5863;52.832;4.758;2023-04-03T15:48:33;9.90;89.30
11615;DHT22;5863;52.832;4.758;2023-04-03T15:51:00;9.80;88.70
11615;DHT22;5863;52.832;4.758;2023-04-03T15:53:36;9.80;90.10
11615;DHT22;5863;52.832;4.758;2023-04-03T15:56:04;9.80;90.40
11615;DHT22;5863;52.832;4.758;2023-04-03T15:58:31;9.90;90.80
11615;DHT22;5863;52.832;4.758;2023-04-03T16:00:57;9.90;88.80
11615;DHT22;5863;52.832;4.758;2023-04-03T16:03:24;9.80;89.40
11615;DHT22;5863;52.832;4.758;2023-04-03T16:05:51;9.80;88.70
11615;DHT22;5863;52.832;4.758;2023-04-03T16:08:18;9.70;89.60
11615;DHT22;5863;52.832;4.758;2023-04-03T16:10:46;9.70;90.20
11615;DHT22;5863;52.832;4.758;2023-04-03T16:13:14;9.60;90.00
11615;DHT22;5863;52.832;4.758;2023-04-03T16:15:41;9.70;90.40